createdAt,value
2024-02-17T00:00:50.479Z,9.30
2024-02-17T00:03:23.659Z,9.30
2024-02-17T00:05:51.211Z,9.29
2024-02-17T00:08:18.073Z,9.30
2024-02-17T00:10:44.962Z,9.29
2024-02-17T00:13:11.911Z,9.29
2024-02-17T00:15:40.301Z,9.26
2024-02-17T00:18:08.211Z,9.28
2024-02-17T00:20:35.016Z,9.29
2024-02-17T00:23:03.818Z,9.29
2024-02-17T00:25:30.271Z,9.29
2024-02-17T00:27:56.647Z,9.29
2024-02-17T00:30:24.001Z,9.30
2024-02-17T00:32:50.493Z,9.30
2024-02-17T00:35:17.143Z,9.29
2024-02-17T00:37:43.543Z,9.28
2024-02-17T00:40:10.398Z,9.27
2024-02-17T00:42:36.960Z,9.27
2024-02-17T00:45:03.570Z,9.26
2024-02-17T00:47:30.054Z,9.27
2024-02-17T00:49:56.580Z,9.27
2024-02-17T00:52:23.178Z,9.27
2024-02-17T00:54:49.706Z,9.27
2024-02-17T00:57:17.133Z,9.26
2024-02-17T00:59:43.607Z,9.27
2024-02-17T01:02:11.025Z,9.28
2024-02-17T01:04:37.672Z,9.29
2024-02-17T01:07:04.449Z,9.30
2024-02-17T01:09:30.961Z,9.29
2024-02-17T01:11:59.308Z,9.29
2024-02-17T01:14:25.847Z,9.26
2024-02-17T01:16:54.611Z,9.27
2024-02-17T01:19:21.288Z,9.27
2024-02-17T01:21:47.870Z,9.29
2024-02-17T01:24:14.355Z,9.30
2024-02-17T01:26:40.872Z,9.29
2024-02-17T01:29:07.261Z,9.29
2024-02-17T01:31:33.745Z,9.28
2024-02-17T01:34:02.171Z,9.28
2024-02-17T01:36:28.700Z,9.28
2024-02-17T01:38:55.177Z,9.28
2024-02-17T01:41:21.609Z,9.30
2024-02-17T01:43:47.998Z,9.29
2024-02-17T01:46:14.633Z,9.28
2024-02-17T01:48:42.147Z,9.29
2024-02-17T01:51:12.738Z,9.30
2024-02-17T01:53:41.386Z,9.31
2024-02-17T01:56:09.750Z,9.33
2024-02-17T01:58:37.318Z,9.34
2024-02-17T02:01:04.550Z,9.35
2024-02-17T02:03:31.037Z,9.35
2024-02-17T02:05:58.286Z,9.35
2024-02-17T02:08:24.924Z,9.37
2024-02-17T02:10:51.477Z,9.39
2024-02-17T02:13:17.993Z,9.39
2024-02-17T02:15:53.720Z,9.40
2024-02-17T02:18:21.923Z,9.42
2024-02-17T02:20:50.254Z,9.42
2024-02-17T02:23:16.944Z,9.44
2024-02-17T02:25:56.202Z,9.45
2024-02-17T02:28:23.472Z,9.44
2024-02-17T02:30:53.677Z,9.44
2024-02-17T02:33:20.395Z,9.43
2024-02-17T02:35:46.945Z,9.41
2024-02-17T02:38:13.669Z,9.40
2024-02-17T02:40:40.136Z,9.41
2024-02-17T02:43:06.728Z,9.41
2024-02-17T02:45:34.828Z,9.41
2024-02-17T02:48:01.638Z,9.42
2024-02-17T02:50:28.101Z,9.43
2024-02-17T02:52:54.493Z,9.40
2024-02-17T02:55:20.946Z,9.42
2024-02-17T02:57:47.460Z,9.40
2024-02-17T03:00:14.106Z,9.38
2024-02-17T03:02:40.553Z,9.40
2024-02-17T03:05:07.336Z,9.41
2024-02-17T03:07:33.799Z,9.41
2024-02-17T03:10:00.392Z,9.40
2024-02-17T03:12:28.053Z,9.42
2024-02-17T03:14:54.555Z,9.39
2024-02-17T03:17:21.052Z,9.35
2024-02-17T03:19:48.081Z,9.36
2024-02-17T03:22:15.074Z,9.36
2024-02-17T03:24:41.562Z,9.37
2024-02-17T03:27:08.751Z,9.40
2024-02-17T03:29:36.295Z,9.39
2024-02-17T03:32:06.400Z,9.39
2024-02-17T03:34:33.125Z,9.39
2024-02-17T03:36:59.602Z,9.39
2024-02-17T03:39:26.270Z,9.40
2024-02-17T03:41:52.826Z,9.42
2024-02-17T03:44:19.480Z,9.42
2024-02-17T03:46:45.983Z,9.41
2024-02-17T03:49:12.926Z,9.39
2024-02-17T03:51:39.557Z,9.40
2024-02-17T03:54:06.054Z,9.37
2024-02-17T03:56:32.549Z,9.34
2024-02-17T03:58:59.009Z,9.34
2024-02-17T04:01:27.890Z,9.32
2024-02-17T04:03:54.476Z,9.31
2024-02-17T04:06:22.575Z,9.29
2024-02-17T04:08:49.143Z,9.28
2024-02-17T04:11:16.071Z,9.24
2024-02-17T04:13:42.604Z,9.21
2024-02-17T04:16:10.256Z,9.21
2024-02-17T04:18:37.304Z,9.24
2024-02-17T04:21:05.229Z,9.26
2024-02-17T04:23:31.965Z,9.28
2024-02-17T04:26:01.147Z,9.29
2024-02-17T04:28:27.625Z,9.30
2024-02-17T04:30:54.628Z,9.33
2024-02-17T04:33:21.304Z,9.34
2024-02-17T04:35:47.973Z,9.35
2024-02-17T04:38:15.082Z,9.36
2024-02-17T04:40:41.613Z,9.35
2024-02-17T04:43:08.080Z,9.33
2024-02-17T04:45:34.515Z,9.35
2024-02-17T04:48:01.083Z,9.33
2024-02-17T04:50:27.557Z,9.34
2024-02-17T04:52:54.317Z,9.34
2024-02-17T04:55:20.779Z,9.36
2024-02-17T04:57:48.725Z,9.34
2024-02-17T05:00:15.835Z,9.32
2024-02-17T05:02:42.271Z,9.33
2024-02-17T05:05:09.096Z,9.35
2024-02-17T05:07:35.725Z,9.32
2024-02-17T05:10:03.124Z,9.33
2024-02-17T05:12:29.875Z,9.33
2024-02-17T05:14:57.221Z,9.32
2024-02-17T05:17:24.991Z,9.34
2024-02-17T05:19:51.650Z,9.34
2024-02-17T05:22:18.124Z,9.35
2024-02-17T05:24:45.308Z,9.36
2024-02-17T05:27:13.175Z,9.35
2024-02-17T05:29:40.322Z,9.34
2024-02-17T05:32:08.401Z,9.34
2024-02-17T05:34:35.576Z,9.33
2024-02-17T05:37:03.143Z,9.34
2024-02-17T05:39:29.588Z,9.33
2024-02-17T05:41:56.091Z,9.33
2024-02-17T05:44:22.589Z,9.33
2024-02-17T05:46:48.984Z,9.32
2024-02-17T05:49:15.533Z,9.31
2024-02-17T05:51:41.970Z,9.31
2024-02-17T05:54:09.325Z,9.30
2024-02-17T05:56:35.750Z,9.28
2024-02-17T05:59:03.962Z,9.27
2024-02-17T06:01:30.449Z,9.26
2024-02-17T06:03:57.056Z,9.25
2024-02-17T06:06:23.776Z,9.26
2024-02-17T06:08:50.426Z,9.23
2024-02-17T06:11:16.974Z,9.22
2024-02-17T06:13:44.752Z,9.20
2024-02-17T06:16:12.874Z,9.15
2024-02-17T06:18:58.097Z,9.17
2024-02-17T06:21:24.643Z,9.17
2024-02-17T06:23:52.864Z,9.18
2024-02-17T06:26:22.078Z,9.15
2024-02-17T06:28:48.482Z,9.13
2024-02-17T06:31:15.085Z,9.14
2024-02-17T06:33:41.733Z,9.15
2024-02-17T06:36:08.651Z,9.15
2024-02-17T06:38:35.168Z,9.14
2024-02-17T06:41:01.887Z,9.15
2024-02-17T06:43:28.331Z,9.15
2024-02-17T06:45:54.840Z,9.16
2024-02-17T06:48:21.369Z,9.17
2024-02-17T06:50:47.831Z,9.19
2024-02-17T06:53:14.281Z,9.19
2024-02-17T06:55:40.629Z,9.18
2024-02-17T06:58:07.001Z,9.19
2024-02-17T07:00:33.445Z,9.19
2024-02-17T07:02:59.876Z,9.18
2024-02-17T07:05:26.539Z,9.19
2024-02-17T07:07:53.043Z,9.20
2024-02-17T07:10:19.633Z,9.21
2024-02-17T07:12:46.203Z,9.22
2024-02-17T07:15:12.936Z,9.21
2024-02-17T07:17:39.436Z,9.21
2024-02-17T07:20:07.676Z,9.19
2024-02-17T07:22:34.108Z,9.21
2024-02-17T07:25:00.789Z,9.23
2024-02-17T07:27:28.763Z,9.22
2024-02-17T07:29:55.342Z,9.27
2024-02-17T07:32:24.124Z,9.27
2024-02-17T07:34:54.100Z,9.28
2024-02-17T07:37:20.842Z,9.30
2024-02-17T07:39:48.133Z,9.33
2024-02-17T07:42:14.738Z,9.34
2024-02-17T07:44:47.012Z,9.35
2024-02-17T07:47:15.772Z,9.36
2024-02-17T07:49:42.885Z,9.35
2024-02-17T07:52:09.482Z,9.35
2024-02-17T07:54:36.023Z,9.36
2024-02-17T07:57:02.484Z,9.40
2024-02-17T07:59:28.973Z,9.39
2024-02-17T08:01:55.473Z,9.40
2024-02-17T08:04:22.070Z,9.41
2024-02-17T08:06:48.607Z,9.43
2024-02-17T08:09:15.126Z,9.46
2024-02-17T08:11:42.349Z,9.44
2024-02-17T08:14:08.766Z,9.48
2024-02-17T08:16:35.119Z,9.52
2024-02-17T08:19:01.695Z,9.53
2024-02-17T08:21:28.194Z,9.53
2024-02-17T08:23:54.742Z,9.54
2024-02-17T08:26:22.597Z,9.56
2024-02-17T08:28:48.967Z,9.50
2024-02-17T08:31:15.558Z,9.48
2024-02-17T08:33:42.127Z,9.46
2024-02-17T08:36:08.679Z,9.51
2024-02-17T08:38:35.146Z,9.58
2024-02-17T08:41:04.844Z,9.64
2024-02-17T08:43:31.653Z,9.67
2024-02-17T08:45:58.495Z,9.71
2024-02-17T08:48:25.555Z,9.75
2024-02-17T08:50:52.806Z,9.77
2024-02-17T08:53:22.130Z,9.80
2024-02-17T08:55:48.557Z,9.78
2024-02-17T08:58:15.043Z,9.75
2024-02-17T09:00:41.687Z,9.70
2024-02-17T09:03:08.400Z,9.70
2024-02-17T09:05:36.916Z,9.74
2024-02-17T09:08:03.726Z,9.76
2024-02-17T09:10:30.227Z,9.78
2024-02-17T09:12:57.863Z,9.79
2024-02-17T09:15:24.541Z,9.79
2024-02-17T09:17:51.084Z,9.82
2024-02-17T09:20:18.118Z,9.88
2024-02-17T09:22:44.609Z,9.93
2024-02-17T09:25:11.345Z,9.96
2024-02-17T09:27:37.924Z,9.93
2024-02-17T09:30:05.471Z,9.98
2024-02-17T09:32:31.907Z,10.04
2024-02-17T09:34:58.546Z,10.04
2024-02-17T09:37:24.996Z,10.05
2024-02-17T09:39:51.537Z,10.07
2024-02-17T09:42:18.223Z,10.07
2024-02-17T09:44:44.807Z,10.07
2024-02-17T09:47:12.382Z,10.08
2024-02-17T09:49:40.476Z,10.14
2024-02-17T09:52:07.709Z,10.17
2024-02-17T09:54:34.791Z,10.19
2024-02-17T09:57:04.088Z,10.23
2024-02-17T09:59:30.470Z,10.27
2024-02-17T10:01:58.690Z,10.28
2024-02-17T10:04:25.398Z,10.36
2024-02-17T10:06:59.733Z,10.40
2024-02-17T10:09:30.261Z,10.46
2024-02-17T10:11:57.276Z,10.48
2024-02-17T10:14:24.770Z,10.50
2024-02-17T10:16:58.748Z,10.51
2024-02-17T10:19:25.492Z,10.52
2024-02-17T10:21:52.174Z,10.55
2024-02-17T10:24:21.534Z,10.57
2024-02-17T10:26:55.370Z,10.60
2024-02-17T10:29:23.396Z,10.66
2024-02-17T10:31:50.097Z,10.72
2024-02-17T10:34:17.189Z,10.76
2024-02-17T10:36:44.618Z,10.78
2024-02-17T10:39:14.269Z,10.79
2024-02-17T10:41:40.735Z,10.80
2024-02-17T10:44:07.518Z,10.77
2024-02-17T10:46:37.831Z,10.82
2024-02-17T10:49:29.186Z,10.80
2024-02-17T10:52:06.388Z,10.79
2024-02-17T10:54:49.307Z,10.88
2024-02-17T10:57:17.465Z,11.04
2024-02-17T10:59:47.315Z,11.09
2024-02-17T11:02:18.787Z,11.19
2024-02-17T11:04:45.785Z,11.16
2024-02-17T11:07:12.939Z,11.19
2024-02-17T11:09:39.586Z,11.23
2024-02-17T11:12:32.469Z,11.23
2024-02-17T11:15:04.295Z,11.20
2024-02-17T11:17:36.437Z,11.16
2024-02-17T11:20:14.178Z,11.19
2024-02-17T11:23:02.428Z,11.21
2024-02-17T11:25:42.588Z,11.24
2024-02-17T11:28:22.786Z,11.28
2024-02-17T11:30:53.820Z,11.32
2024-02-17T11:33:23.986Z,11.32
2024-02-17T11:35:51.605Z,11.31
2024-02-17T11:38:25.446Z,11.35
2024-02-17T11:40:56.345Z,11.34
2024-02-17T11:43:24.963Z,11.33
2024-02-17T11:45:53.068Z,11.31
2024-02-17T11:48:20.138Z,11.38
2024-02-17T11:50:46.741Z,11.39
2024-02-17T11:53:13.605Z,11.36
2024-02-17T11:55:40.810Z,11.31
2024-02-17T11:58:09.432Z,11.30
2024-02-17T12:00:48.396Z,11.29
2024-02-17T12:03:16.168Z,11.30
2024-02-17T12:05:43.012Z,11.34
2024-02-17T12:08:10.542Z,11.40
2024-02-17T12:10:37.679Z,11.54
2024-02-17T12:13:06.837Z,11.61
2024-02-17T12:15:33.431Z,11.62
2024-02-17T12:17:59.897Z,11.70
2024-02-17T12:20:26.478Z,11.76
2024-02-17T12:22:54.656Z,11.79
2024-02-17T12:25:21.374Z,11.77
2024-02-17T12:27:49.560Z,11.73
2024-02-17T12:30:18.641Z,11.76
2024-02-17T12:32:46.322Z,11.80
2024-02-17T12:35:14.090Z,11.85
2024-02-17T12:37:49.872Z,11.89
2024-02-17T12:40:22.103Z,11.89
2024-02-17T12:42:53.788Z,11.89
2024-02-17T12:45:24.979Z,11.89
2024-02-17T12:47:51.977Z,11.86
2024-02-17T12:50:21.620Z,11.72
2024-02-17T12:52:49.788Z,11.69
2024-02-17T12:55:17.089Z,11.66
2024-02-17T12:57:44.681Z,11.62
2024-02-17T13:00:15.107Z,11.63
2024-02-17T13:02:41.625Z,11.65
2024-02-17T13:05:08.816Z,11.68
2024-02-17T13:07:39.210Z,11.64
2024-02-17T13:10:07.845Z,11.66
2024-02-17T13:12:34.490Z,11.69
2024-02-17T13:15:00.907Z,11.71
2024-02-17T13:17:27.330Z,11.80
2024-02-17T13:19:53.914Z,11.89
2024-02-17T13:22:20.421Z,12.00
2024-02-17T13:24:46.885Z,12.02
2024-02-17T13:27:13.512Z,12.15
2024-02-17T13:29:40.096Z,12.10
2024-02-17T13:32:07.016Z,12.03
2024-02-17T13:34:35.393Z,12.01
2024-02-17T13:37:04.276Z,12.03
2024-02-17T13:39:32.902Z,12.01
2024-02-17T13:42:00.111Z,11.96
2024-02-17T13:44:26.662Z,12.00
2024-02-17T13:46:56.633Z,12.05
2024-02-17T13:49:24.748Z,12.19
2024-02-17T13:51:52.853Z,12.19
2024-02-17T13:54:20.286Z,12.15
2024-02-17T13:56:46.721Z,12.10
2024-02-17T13:59:13.095Z,12.15
2024-02-17T14:01:40.246Z,12.14
2024-02-17T14:04:07.609Z,12.07
2024-02-17T14:06:34.345Z,12.05
2024-02-17T14:09:01.370Z,12.02
2024-02-17T14:11:27.931Z,12.03
2024-02-17T14:14:01.862Z,12.05
2024-02-17T14:16:31.434Z,12.08
2024-02-17T14:18:58.136Z,12.10
2024-02-17T14:21:25.510Z,12.15
2024-02-17T14:23:53.812Z,12.20
2024-02-17T14:26:20.939Z,12.19
2024-02-17T14:28:48.787Z,12.16
2024-02-17T14:31:16.788Z,12.15
2024-02-17T14:33:44.470Z,12.14
2024-02-17T14:36:12.484Z,12.14
2024-02-17T14:38:39.171Z,12.12
2024-02-17T14:41:08.876Z,12.12
2024-02-17T14:43:38.149Z,12.14
2024-02-17T14:46:05.109Z,12.10
2024-02-17T14:48:31.778Z,12.06
2024-02-17T14:50:58.902Z,12.07
2024-02-17T14:53:25.453Z,12.05
2024-02-17T14:55:55.440Z,12.09
2024-02-17T14:58:22.447Z,12.14
2024-02-17T15:00:48.995Z,12.14
2024-02-17T15:03:15.634Z,12.17
2024-02-17T15:05:42.228Z,12.19
2024-02-17T15:08:08.688Z,12.16
2024-02-17T15:10:35.287Z,12.13
2024-02-17T15:13:01.796Z,12.07
2024-02-17T15:15:29.602Z,12.04
2024-02-17T15:17:56.293Z,11.99
2024-02-17T15:20:22.845Z,11.96
2024-02-17T15:22:49.533Z,11.96
2024-02-17T15:25:16.002Z,11.93
2024-02-17T15:27:42.437Z,11.95
2024-02-17T15:30:09.812Z,11.99
2024-02-17T15:32:36.319Z,12.01
2024-02-17T15:35:03.140Z,11.98
2024-02-17T15:37:29.835Z,11.95
2024-02-17T15:39:56.536Z,11.98
2024-02-17T15:42:23.066Z,11.98
2024-02-17T15:44:49.537Z,11.91
2024-02-17T15:47:15.962Z,11.86
2024-02-17T15:49:42.678Z,11.79
2024-02-17T15:52:09.188Z,11.80
2024-02-17T15:54:35.936Z,11.81
2024-02-17T15:57:02.410Z,11.79
2024-02-17T15:59:28.860Z,11.79
2024-02-17T16:01:55.454Z,11.77
2024-02-17T16:04:22.122Z,11.81
2024-02-17T16:06:48.758Z,11.82
2024-02-17T16:09:15.238Z,11.81
2024-02-17T16:11:41.757Z,11.76
2024-02-17T16:14:08.131Z,11.74
2024-02-17T16:16:35.159Z,11.72
2024-02-17T16:19:01.686Z,11.70
2024-02-17T16:21:29.083Z,11.75
2024-02-17T16:23:57.012Z,11.73
2024-02-17T16:26:25.593Z,11.68
2024-02-17T16:28:52.048Z,11.61
2024-02-17T16:31:19.046Z,11.53
2024-02-17T16:33:46.564Z,11.47
2024-02-17T16:36:14.193Z,11.42
2024-02-17T16:38:40.685Z,11.36
2024-02-17T16:41:07.873Z,11.33
2024-02-17T16:43:34.349Z,11.30
2024-02-17T16:46:01.871Z,11.25
2024-02-17T16:48:29.271Z,11.21
2024-02-17T16:50:56.708Z,11.18
2024-02-17T16:53:23.295Z,11.17
2024-02-17T16:55:49.762Z,11.12
2024-02-17T16:58:16.338Z,11.08
2024-02-17T17:00:42.955Z,11.04
2024-02-17T17:03:09.579Z,11.00
2024-02-17T17:05:37.302Z,11.01
2024-02-17T17:08:04.220Z,11.02
2024-02-17T17:10:31.422Z,11.05
2024-02-17T17:12:57.958Z,11.08
2024-02-17T17:15:24.463Z,11.07
2024-02-17T17:17:51.113Z,11.08
2024-02-17T17:20:19.031Z,11.07
2024-02-17T17:22:47.808Z,11.09
2024-02-17T17:25:15.772Z,11.09
2024-02-17T17:27:42.913Z,11.10
2024-02-17T17:30:13.386Z,11.08
2024-02-17T17:32:40.826Z,11.07
2024-02-17T17:35:08.313Z,11.06
2024-02-17T17:37:34.933Z,11.05
2024-02-17T17:40:01.514Z,11.07
2024-02-17T17:42:28.224Z,11.06
2024-02-17T17:44:56.435Z,11.05
2024-02-17T17:47:23.009Z,11.03
2024-02-17T17:49:49.584Z,11.02
2024-02-17T17:52:16.209Z,11.01
2024-02-17T17:54:43.827Z,10.97
2024-02-17T17:57:10.385Z,10.98
2024-02-17T17:59:36.832Z,10.95
2024-02-17T18:02:03.330Z,10.96
2024-02-17T18:04:29.946Z,10.93
2024-02-17T18:06:56.573Z,10.94
2024-02-17T18:09:23.403Z,10.93
2024-02-17T18:11:49.934Z,10.94
2024-02-17T18:14:16.390Z,10.96
2024-02-17T18:16:42.842Z,10.96
2024-02-17T18:19:09.768Z,10.93
2024-02-17T18:21:36.298Z,10.91
2024-02-17T18:24:02.842Z,10.88
2024-02-17T18:26:29.282Z,10.87
2024-02-17T18:28:55.782Z,10.84
2024-02-17T18:31:22.295Z,10.84
2024-02-17T18:33:48.947Z,10.86
2024-02-17T18:36:16.745Z,10.83
2024-02-17T18:38:48.113Z,10.85
2024-02-17T18:41:15.252Z,10.87
2024-02-17T18:43:43.569Z,10.89
2024-02-17T18:46:10.865Z,10.88
2024-02-17T18:48:37.993Z,10.88
2024-02-17T18:51:04.537Z,10.87
2024-02-17T18:53:31.008Z,10.85
2024-02-17T18:55:57.432Z,10.86
2024-02-17T18:58:23.911Z,10.84
2024-02-17T19:00:50.424Z,10.82
2024-02-17T19:03:17.117Z,10.77
2024-02-17T19:05:43.808Z,10.76
2024-02-17T19:08:10.365Z,10.79
2024-02-17T19:10:36.718Z,10.80
2024-02-17T19:13:03.508Z,10.81
2024-02-17T19:15:30.100Z,10.80
2024-02-17T19:17:56.653Z,10.79
2024-02-17T19:20:23.217Z,10.77
2024-02-17T19:22:49.722Z,10.75
2024-02-17T19:25:16.235Z,10.73
2024-02-17T19:27:43.569Z,10.72
2024-02-17T19:30:11.213Z,10.72
2024-02-17T19:32:38.727Z,10.72
2024-02-17T19:35:05.650Z,10.71
2024-02-17T19:37:32.346Z,10.71
2024-02-17T19:39:58.873Z,10.71
2024-02-17T19:42:25.537Z,10.74
2024-02-17T19:44:52.102Z,10.74
2024-02-17T19:47:21.425Z,10.75
2024-02-17T19:49:47.892Z,10.73
2024-02-17T19:52:14.317Z,10.72
2024-02-17T19:54:40.927Z,10.76
2024-02-17T19:57:07.378Z,10.77
2024-02-17T19:59:33.849Z,10.75
2024-02-17T20:02:00.344Z,10.72
2024-02-17T20:04:27.007Z,10.72
2024-02-17T20:06:54.475Z,10.72
2024-02-17T20:09:20.959Z,10.68
2024-02-17T20:11:47.432Z,10.66
2024-02-17T20:14:13.975Z,10.69
2024-02-17T20:16:40.688Z,10.67
2024-02-17T20:19:07.350Z,10.64
2024-02-17T20:21:37.953Z,10.62
2024-02-17T20:24:04.905Z,10.62
2024-02-17T20:26:31.808Z,10.63
2024-02-17T20:28:59.094Z,10.60
2024-02-17T20:31:27.558Z,10.61
2024-02-17T20:33:58.100Z,10.59
2024-02-17T20:36:25.044Z,10.57
2024-02-17T20:38:54.767Z,10.52
2024-02-17T20:41:21.375Z,10.55
2024-02-17T20:43:47.856Z,10.53
2024-02-17T20:46:14.449Z,10.51
2024-02-17T20:48:41.151Z,10.46
2024-02-17T20:51:07.695Z,10.44
2024-02-17T20:53:35.366Z,10.43
2024-02-17T20:56:02.864Z,10.36
2024-02-17T20:58:29.351Z,10.35
2024-02-17T21:00:55.970Z,10.35
2024-02-17T21:03:22.572Z,10.33
2024-02-17T21:05:50.513Z,10.29
2024-02-17T21:08:17.182Z,10.29
2024-02-17T21:10:44.443Z,10.27
2024-02-17T21:13:11.226Z,10.28
2024-02-17T21:15:37.724Z,10.25
2024-02-17T21:18:04.619Z,10.28
2024-02-17T21:20:31.102Z,10.28
2024-02-17T21:22:57.605Z,10.30
2024-02-17T21:25:24.035Z,10.30
2024-02-17T21:27:51.610Z,10.28
2024-02-17T21:30:18.829Z,10.29
2024-02-17T21:32:47.914Z,10.30
2024-02-17T21:35:14.520Z,10.33
2024-02-17T21:37:40.980Z,10.32
2024-02-17T21:40:08.280Z,10.33
2024-02-17T21:42:35.792Z,10.32
2024-02-17T21:45:02.454Z,10.34
2024-02-17T21:47:29.778Z,10.34
2024-02-17T21:49:56.760Z,10.34
2024-02-17T21:52:24.117Z,10.33
2024-02-17T21:54:50.636Z,10.33
2024-02-17T21:57:17.209Z,10.32
2024-02-17T21:59:43.732Z,10.32
2024-02-17T22:02:10.220Z,10.32
2024-02-17T22:04:37.216Z,10.32
2024-02-17T22:07:03.885Z,10.34
2024-02-17T22:09:31.317Z,10.34
2024-02-17T22:11:57.856Z,10.32
2024-02-17T22:14:24.655Z,10.33
2024-02-17T22:16:51.241Z,10.34
2024-02-17T22:19:18.014Z,10.36
2024-02-17T22:21:45.121Z,10.34
2024-02-17T22:24:11.733Z,10.33
2024-02-17T22:26:41.286Z,10.31
2024-02-17T22:29:10.100Z,10.30
2024-02-17T22:31:36.782Z,10.28
2024-02-17T22:34:04.126Z,10.27
2024-02-17T22:36:31.327Z,10.27
2024-02-17T22:38:58.329Z,10.25
2024-02-17T22:41:24.712Z,10.23
2024-02-17T22:43:51.623Z,10.21
2024-02-17T22:46:18.132Z,10.20
2024-02-17T22:48:44.661Z,10.21
2024-02-17T22:51:11.256Z,10.17
2024-02-17T22:53:38.376Z,10.13
2024-02-17T22:56:06.984Z,10.12
2024-02-17T22:58:34.353Z,10.09
2024-02-17T23:01:01.498Z,10.05
2024-02-17T23:03:28.098Z,10.03
2024-02-17T23:05:54.689Z,9.98
2024-02-17T23:08:21.134Z,10.00
2024-02-17T23:10:47.889Z,9.99
2024-02-17T23:13:14.363Z,9.98
2024-02-17T23:15:41.182Z,9.97
2024-02-17T23:18:07.911Z,9.96
2024-02-17T23:20:34.587Z,9.95
2024-02-17T23:23:03.204Z,9.97
2024-02-17T23:25:31.587Z,9.96
2024-02-17T23:28:00.050Z,9.96
2024-02-17T23:30:26.547Z,9.97
2024-02-17T23:32:56.696Z,9.95
2024-02-17T23:35:24.001Z,9.96
2024-02-17T23:37:50.364Z,9.98
2024-02-17T23:40:17.592Z,9.96
2024-02-17T23:42:44.196Z,9.97
2024-02-17T23:45:10.710Z,9.94
2024-02-17T23:47:37.586Z,9.94
2024-02-17T23:50:04.582Z,9.92
2024-02-17T23:52:31.194Z,9.90
2024-02-17T23:54:57.815Z,9.90
2024-02-17T23:57:24.938Z,9.89
2024-02-17T23:59:51.434Z,9.86
